Time;durP1;ratioP1;P1;durP2;ratioP2;P2;SDS_P1;SDS_P2;PMS_P1;PMS_P2;Temp;Humidity;BMP_temperature;BMP_pressure;BME280_temperature;BME280_humidity;BME280_pressure;Samples;Min_cycle;Max_cycle;Signal;HPM_P1;HPM_P2
2021/09/14 00:01:21;;;;;;;7.07;4.82;;;;;;;16.05;69.57;92869.56;4992239;28;20049;-93
2021/09/14 00:03:47;;;;;;;11.10;5.30;;;;;;;16.12;69.32;92888.34;4979917;28;20038;-93
2021/09/14 00:06:13;;;;;;;8.80;5.78;;;;;;;15.97;69.45;92869.25;4999823;28;20052;-94
2021/09/14 00:08:39;;;;;;;10.23;5.65;;;;;;;16.08;69.80;92888.22;4999587;28;20072;-93
2021/09/14 00:11:07;;;;;;;7.55;4.72;;;;;;;16.12;69.70;92893.63;5015368;28;20057;-92
2021/09/14 00:13:33;;;;;;;8.48;5.10;;;;;;;16.01;70.31;92872.84;4997587;28;20033;-92
2021/09/14 00:15:59;;;;;;;9.35;5.97;;;;;;;16.05;70.26;92882.75;4980924;28;20037;-92
2021/09/14 00:18:25;;;;;;;8.30;5.07;;;;;;;16.09;70.34;92886.34;4999315;28;20478;-91
2021/09/14 00:20:51;;;;;;;11.65;5.78;;;;;;;16.10;70.05;92895.81;4981360;28;20375;-92
2021/09/14 00:23:17;;;;;;;10.13;5.43;;;;;;;15.97;70.57;92879.81;4976087;28;20068;-92
2021/09/14 00:25:43;;;;;;;8.32;5.28;;;;;;;15.99;70.44;92890.84;5020016;28;20097;-91
2021/09/14 00:28:09;;;;;;;6.60;4.38;;;;;;;15.93;70.22;92876.22;5006391;28;20475;-91
2021/09/14 00:30:35;;;;;;;10.00;6.63;;;;;;;16.06;69.93;92892.25;5010014;28;20067;-93
2021/09/14 00:33:01;;;;;;;8.05;4.88;;;;;;;16.05;70.24;92888.03;4995684;28;20029;-92
2021/09/14 00:35:26;;;;;;;9.23;5.55;;;;;;;15.93;70.11;92868.31;4996087;28;20072;-92
2021/09/14 00:37:52;;;;;;;8.65;5.20;;;;;;;15.95;70.36;92868.00;5006347;28;20397;-92
2021/09/14 00:40:18;;;;;;;8.65;4.80;;;;;;;15.95;70.43;92871.41;4996118;28;20088;-92
2021/09/14 00:42:44;;;;;;;9.05;5.43;;;;;;;15.93;70.04;92860.41;4993380;28;20029;-93
2021/09/14 00:45:10;;;;;;;9.85;5.60;;;;;;;16.02;70.28;92878.88;4985802;28;20066;-92
2021/09/14 00:47:36;;;;;;;8.07;4.45;;;;;;;15.99;70.31;92869.72;4986611;28;20100;-93
2021/09/14 00:50:05;;;;;;;8.38;5.28;;;;;;;15.97;70.53;92869.25;5027543;28;20056;-92
2021/09/14 00:52:33;;;;;;;10.65;5.47;;;;;;;16.10;71.37;92895.81;4995617;28;20029;-92
2021/09/14 00:55:02;;;;;;;8.27;5.18;;;;;;;15.87;71.44;92866.13;4997610;28;20041;-92
2021/09/14 00:57:28;;;;;;;8.23;5.25;;;;;;;15.82;71.24;92854.63;4998994;28;20033;-93
2021/09/14 00:59:54;;;;;;;9.40;5.57;;;;;;;15.92;70.90;92871.25;4995950;28;20141;-91
2021/09/14 01:02:20;;;;;;;8.52;5.53;;;;;;;15.78;70.71;92852.91;4997099;28;20501;-92
2021/09/14 01:04:46;;;;;;;7.78;5.60;;;;;;;15.87;70.51;92876.69;5008044;28;20034;-93
2021/09/14 01:07:12;;;;;;;8.80;5.75;;;;;;;15.71;70.80;92853.38;4995264;28;20115;-92
2021/09/14 01:09:39;;;;;;;9.82;5.53;;;;;;;15.91;71.02;92873.13;4994616;28;20089;-91
2021/09/14 01:12:06;;;;;;;8.90;5.22;;;;;;;15.91;70.80;92877.63;4961181;28;20093;-94
2021/09/14 01:14:31;;;;;;;8.63;5.60;;;;;;;15.72;70.76;92854.19;4976688;28;20072;-92
2021/09/14 01:16:57;;;;;;;7.60;5.30;;;;;;;15.71;70.90;92856.00;4990002;28;20115;-92
2021/09/14 01:19:23;;;;;;;9.75;4.85;;;;;;;15.69;71.07;92858.16;4991572;28;20471;-94
2021/09/14 01:21:50;;;;;;;8.75;5.35;;;;;;;15.74;70.94;92862.56;5000084;28;20036;-92
2021/09/14 01:24:15;;;;;;;8.15;5.20;;;;;;;15.86;71.06;92890.97;4995282;28;20041;-91
2021/09/14 01:26:52;;;;;;;10.20;5.43;;;;;;;15.71;71.48;92863.16;4997429;28;20056;-93
2021/09/14 01:32:07;;;;;;;8.35;5.28;;;;;;;15.60;71.88;92847.59;4999449;28;20037;-92
2021/09/14 01:34:34;;;;;;;10.55;6.03;;;;;;;15.58;71.88;92838.41;4981160;28;20037;-93
2021/09/14 01:37:00;;;;;;;9.10;5.60;;;;;;;15.66;71.99;92855.38;4997546;28;20056;-92
2021/09/14 01:39:26;;;;;;;9.48;5.45;;;;;;;15.53;71.77;92847.25;5023086;28;20073;-92
2021/09/14 01:41:53;;;;;;;9.45;5.53;;;;;;;15.65;71.85;92865.16;4977349;28;20068;-92
2021/09/14 01:44:19;;;;;;;9.07;5.80;;;;;;;15.74;71.86;92883.69;4981136;28;20037;-91
2021/09/14 01:46:45;;;;;;;8.48;5.45;;;;;;;15.57;71.99;92847.44;4992667;28;20391;-92
2021/09/14 01:49:12;;;;;;;8.23;5.47;;;;;;;15.65;71.80;92862.50;5006436;28;20083;-92
2021/09/14 01:51:38;;;;;;;8.07;5.38;;;;;;;15.53;71.47;92847.25;5007239;28;20494;-91
2021/09/14 01:54:04;;;;;;;10.65;5.78;;;;;;;15.67;71.44;92870.09;4996670;28;20045;-92
2021/09/14 01:56:30;;;;;;;6.85;4.45;;;;;;;15.61;71.45;92864.97;4996980;28;20478;-94
2021/09/14 01:58:56;;;;;;;11.27;5.65;;;;;;;15.45;71.45;92845.41;4994302;28;20026;-91
2021/09/14 02:01:29;;;;;;;9.23;5.40;;;;;;;15.58;71.79;92870.09;4990111;28;20065;-93
2021/09/14 02:04:01;;;;;;;8.30;5.35;;;;;;;15.46;71.94;92846.94;4992503;28;20034;-93
2021/09/14 02:39:35;;;;;;;9.10;5.63;;;;;;;15.48;71.76;92850.06;5002468;28;20049;-94
2021/09/14 03:01:03;;;;;;;7.80;5.28;;;;;;;15.41;72.03;92849.72;4966895;28;20079;-93
2021/09/14 03:03:29;;;;;;;7.32;4.85;;;;;;;15.27;72.32;92830.63;4982779;28;20097;-94
2021/09/14 03:05:57;;;;;;;9.10;5.13;;;;;;;15.22;72.52;92822.81;5030283;28;20121;-94
2021/09/14 03:08:23;;;;;;;8.77;4.70;;;;;;;15.28;73.02;92835.56;5008342;28;20112;-93
2021/09/14 03:10:59;;;;;;;9.68;5.25;;;;;;;15.36;73.12;92847.25;4996735;28;20048;-93
2021/09/14 03:13:26;;;;;;;8.55;5.22;;;;;;;15.25;72.84;92830.13;5019661;28;20040;-95
2021/09/14 03:15:53;;;;;;;9.45;5.80;;;;;;;15.08;72.93;92810.53;5009132;28;20079;-93
2021/09/14 03:18:20;;;;;;;7.90;4.80;;;;;;;15.09;73.05;92817.38;5012722;28;20040;-92
2021/09/14 03:20:49;;;;;;;9.30;5.55;;;;;;;15.09;73.04;92820.00;5012685;28;20485;-93
2021/09/14 03:23:14;;;;;;;9.57;5.65;;;;;;;15.12;73.00;92823.88;5003468;28;20139;-94
2021/09/14 03:25:41;;;;;;;11.57;5.30;;;;;;;15.02;73.27;92811.78;4975757;28;20096;-93
2021/09/14 03:28:11;;;;;;;8.32;5.55;;;;;;;15.04;73.36;92820.16;5030423;28;20112;-94
2021/09/14 03:30:38;;;;;;;8.82;4.72;;;;;;;15.24;73.52;92857.59;5012374;28;20514;-94
2021/09/14 03:33:04;;;;;;;15.50;4.90;;;;;;;15.03;73.49;92829.13;5027827;28;20069;-94
2021/09/14 03:35:31;;;;;;;8.00;5.65;;;;;;;15.10;73.35;92842.66;5015726;28;20033;-93
2021/09/14 03:37:57;;;;;;;13.48;6.55;;;;;;;14.94;73.46;92821.19;5001293;28;20045;-94
2021/09/14 03:40:23;;;;;;;10.00;6.25;;;;;;;14.93;73.69;92824.91;5027780;28;20043;-94
2021/09/14 03:42:49;;;;;;;9.65;5.30;;;;;;;14.95;73.99;92821.97;5009833;28;20114;-94
2021/09/14 03:45:15;;;;;;;10.60;5.72;;;;;;;15.06;74.05;92848.81;5013316;28;20030;-94
2021/09/14 03:47:42;;;;;;;9.02;6.05;;;;;;;14.93;74.13;92829.41;5016028;28;20095;-93
2021/09/14 03:50:08;;;;;;;7.55;5.47;;;;;;;14.99;74.47;92839.53;5009415;28;20119;-94
2021/09/14 03:52:34;;;;;;;9.98;5.60;;;;;;;14.88;74.65;92824.25;5021764;28;20034;-94
2021/09/14 03:55:00;;;;;;;8.43;5.07;;;;;;;14.86;74.38;92823.78;5018135;28;20044;-93
2021/09/14 03:57:27;;;;;;;10.88;5.13;;;;;;;14.93;74.45;92835.47;5001733;28;20069;-92
2021/09/14 03:59:54;;;;;;;10.25;5.75;;;;;;;14.92;74.44;92827.84;5035010;28;20060;-93
2021/09/14 04:02:34;;;;;;;9.07;5.43;;;;;;;14.99;74.81;92844.00;5008683;28;20113;-94
2021/09/14 04:07:53;;;;;;;10.57;5.78;;;;;;;14.92;75.00;92838.38;5015095;28;20083;-93
2021/09/14 04:10:19;;;;;;;10.23;6.18;;;;;;;14.83;75.29;92824.41;4995191;28;20060;-94
2021/09/14 04:12:45;;;;;;;8.40;5.50;;;;;;;14.85;75.48;92827.50;5000170;28;20044;-92
2021/09/14 04:15:11;;;;;;;8.52;5.72;;;;;;;14.82;75.58;92828.13;5013191;28;20025;-93
2021/09/14 04:17:37;;;;;;;10.05;5.68;;;;;;;14.81;75.64;92829.19;5012265;28;20029;-93
2021/09/14 04:20:04;;;;;;;8.10;5.32;;;;;;;14.82;75.71;92833.41;4992620;28;20044;-95
2021/09/14 04:22:33;;;;;;;7.68;4.85;;;;;;;14.86;75.36;92845.66;5012448;28;20119;-93
2021/09/14 04:25:03;;;;;;;10.95;5.53;;;;;;;14.75;75.46;92831.97;5026192;28;20045;-95
2021/09/14 04:27:32;;;;;;;10.35;5.22;;;;;;;14.83;75.22;92850.75;5018302;28;20057;-94
2021/09/14 04:30:01;;;;;;;7.53;5.00;;;;;;;14.87;75.63;92856.97;5008495;28;20033;-93
2021/09/14 04:32:27;;;;;;;8.48;5.30;;;;;;;14.70;75.71;92829.47;4997195;28;20021;-93
2021/09/14 04:34:53;;;;;;;7.18;4.75;;;;;;;14.82;75.55;92847.34;5012118;28;20053;-93
2021/09/14 04:37:19;;;;;;;9.10;5.63;;;;;;;14.87;75.36;92851.72;5014195;28;20025;-92
2021/09/14 04:39:45;;;;;;;8.80;5.15;;;;;;;14.85;75.26;92849.38;4992968;28;20049;-93
2021/09/14 04:42:12;;;;;;;9.48;5.43;;;;;;;14.92;75.55;92864.75;5004148;28;20987;-92
2021/09/14 04:44:41;;;;;;;9.65;5.85;;;;;;;14.84;75.72;92857.56;5014584;28;20038;-91
2021/09/14 04:47:10;;;;;;;8.05;5.38;;;;;;;14.83;76.13;92853.38;5011844;28;20032;-92
2021/09/14 04:49:36;;;;;;;7.13;4.85;;;;;;;14.68;76.11;92834.25;4991240;28;20044;-92
2021/09/14 04:52:09;;;;;;;8.57;5.65;;;;;;;14.85;75.97;92853.88;5012029;28;20478;-93
2021/09/14 04:54:37;;;;;;;8.73;5.45;;;;;;;14.69;76.23;92835.03;4996285;28;20087;-92
2021/09/14 04:57:07;;;;;;;10.10;5.93;;;;;;;14.82;76.38;92851.84;5013101;28;20029;-93
2021/09/14 04:59:33;;;;;;;10.23;5.88;;;;;;;14.85;76.37;92853.88;4998901;28;20045;-92
2021/09/14 05:01:58;;;;;;;8.68;5.47;;;;;;;14.67;76.33;92826.66;4993856;28;20065;-93
2021/09/14 05:04:24;;;;;;;8.27;5.35;;;;;;;14.85;76.32;92853.88;5008869;28;20059;-90
2021/09/14 05:06:50;;;;;;;9.93;5.38;;;;;;;14.83;76.49;92842.84;5009132;28;20135;-92
2021/09/14 05:09:16;;;;;;;9.23;5.60;;;;;;;14.88;76.33;92848.78;4985216;28;20556;-92
2021/09/14 05:11:46;;;;;;;10.02;6.10;;;;;;;14.92;75.93;92854.19;5003008;28;20030;-91
2021/09/14 05:14:12;;;;;;;10.00;5.70;;;;;;;14.80;75.92;92833.69;5011109;28;20050;-91
2021/09/14 05:17:44;;;;;;;;;;;;;;;;;;;;;
2021/09/14 05:21:43;;;;;;;;;;;;;;;;;;;;;
2021/09/14 05:24:35;;;;;;;7.25;4.57;;;;;;;15.14;75.24;92856.00;4938802;28;20076;-91
2021/09/14 05:27:27;;;;;;;8.10;5.10;;;;;;;15.16;75.40;92849.34;4993358;28;20067;-91
2021/09/14 05:30:33;;;;;;;11.52;5.93;;;;;;;15.19;74.79;92848.72;4997157;28;20041;-91
2021/09/14 05:33:56;;;;;;;;;;;;;;;;;;;;;
2021/09/14 05:37:43;;;;;;;10.98;5.57;;;;;;;15.70;74.28;92880.06;5016606;28;20069;-91
2021/09/14 05:40:39;;;;;;;;;;;;;;;;;;;;;
2021/09/14 05:43:45;;;;;;;7.85;4.82;;;;;;;15.80;73.04;92863.94;4994684;28;20103;-91
2021/09/14 05:46:51;;;;;;;8.00;4.90;;;;;;;16.18;72.57;92895.03;5012782;28;20033;-92
2021/09/14 05:49:31;;;;;;;9.52;5.20;;;;;;;16.21;71.79;92860.88;4973211;28;20041;-92
2021/09/14 05:55:56;;;;;;;9.77;5.47;;;;;;;18.15;66.21;92884.47;5015393;28;20581;-93
2021/09/14 06:03:07;;;;;;;7.45;4.85;;;;;;;19.50;62.88;92884.13;5011849;28;20052;-92
2021/09/14 06:06:40;;;;;;;7.95;4.68;;;;;;;20.59;59.16;92903.69;5028497;28;20048;-91
2021/09/14 06:13:15;;;;;;;8.10;5.32;;;;;;;21.89;54.72;92889.06;5048317;28;20049;-92
2021/09/14 06:16:43;;;;;;;;;;;;;;;;;;;;;
2021/09/14 06:22:57;;;;;;;8.65;5.20;;;;;;;19.98;60.73;92906.47;5010153;28;20129;-91
2021/09/14 06:26:34;;;;;;;9.60;6.07;;;;;;;20.96;59.11;92911.53;5000611;28;20418;-90
2021/09/14 06:29:24;;;;;;;9.48;6.00;;;;;;;21.10;57.96;92870.44;4963845;28;20383;-91
2021/09/14 06:32:58;;;;;;;9.75;6.22;;;;;;;22.12;55.50;92875.84;5027118;28;20045;-91
2021/09/14 06:36:24;;;;;;;12.60;5.97;;;;;;;22.48;54.21;92889.94;4992208;28;20041;-91
2021/09/14 06:39:37;;;;;;;13.20;7.20;;;;;;;22.48;54.93;92905.97;5017694;28;20033;-92
2021/09/14 06:42:42;;;;;;;12.40;6.38;;;;;;;24.11;50.95;92913.78;4946031;28;20311;-91
2021/09/14 06:46:22;;;;;;;;;;;;;;;;;;;;;
2021/09/14 06:49:21;;;;;;;8.80;5.60;;;;;;;23.25;51.97;92883.78;4964194;28;20621;-92
2021/09/14 06:52:01;;;;;;;10.27;5.63;;;;;;;22.86;52.64;92899.09;4945186;28;20035;-91
2021/09/14 06:57:56;;;;;;;9.25;5.47;;;;;;;22.80;55.00;92897.81;4971409;28;20150;-92
2021/09/14 07:00:22;;;;;;;10.13;6.22;;;;;;;23.72;53.46;92907.84;4932108;28;20089;-91
2021/09/14 07:03:23;;;;;;;;;;;;;;;;;;;;;
2021/09/14 07:06:30;;;;;;;7.75;5.35;;;;;;;24.89;48.46;92895.31;4994489;28;20725;-90
2021/09/14 07:21:33;;;;;;;7.70;4.53;;;;;;;23.18;52.15;92890.91;4821697;29;20057;-93
2021/09/14 07:25:49;;;;;;;;;;;;;;;;;;;;;
2021/09/14 07:28:42;;;;;;;;;;;;;;;;;;;;;
2021/09/14 07:31:32;;;;;;;6.65;4.70;;;;;;;21.85;58.19;92898.09;4897403;29;20140;-93
2021/09/14 07:37:01;;;;;;;6.63;4.40;;;;;;;20.91;58.33;92898.44;5048167;28;20106;-90
2021/09/14 08:21:34;;;;;;;7.15;4.72;;;;;;;23.00;56.15;92935.97;5022502;28;20124;-78
2021/09/14 08:23:59;;;;;;;7.75;5.13;;;;;;;22.86;55.77;92928.44;4996776;28;20176;-77
2021/09/14 08:26:25;;;;;;;9.38;5.47;;;;;;;22.83;56.90;92937.13;5014227;28;20065;-77
2021/09/14 08:28:51;;;;;;;7.55;4.80;;;;;;;22.64;57.02;92940.56;4998828;28;20545;-78
2021/09/14 08:31:22;;;;;;;7.85;5.18;;;;;;;22.57;58.43;92935.09;5004964;28;20041;-78
2021/09/14 08:33:48;;;;;;;10.23;5.47;;;;;;;22.31;58.97;92944.47;4999678;28;20041;-77
2021/09/14 08:36:14;;;;;;;8.48;5.45;;;;;;;22.10;59.71;92938.63;5000148;28;20036;-78
2021/09/14 08:38:40;;;;;;;8.50;5.22;;;;;;;22.15;59.62;92941.78;5000608;28;20124;-78
2021/09/14 08:41:07;;;;;;;7.03;5.18;;;;;;;22.24;59.44;92944.31;5016135;28;20107;-78
2021/09/14 08:43:38;;;;;;;12.20;5.57;;;;;;;22.57;58.13;92943.09;5000268;28;20038;-77
2021/09/14 08:46:04;;;;;;;8.05;4.90;;;;;;;22.86;56.20;92942.53;5016985;28;20122;-78
2021/09/14 08:48:31;;;;;;;9.27;5.47;;;;;;;23.01;56.74;92950.84;5016365;28;20499;-77
2021/09/14 08:50:59;;;;;;;8.05;5.38;;;;;;;22.76;57.17;92948.44;5016940;28;20091;-78
2021/09/14 08:53:25;;;;;;;9.10;4.95;;;;;;;22.61;57.30;92950.06;5016126;28;20033;-77
2021/09/14 08:55:50;;;;;;;7.40;4.85;;;;;;;22.71;57.14;92948.72;5033957;28;20083;-78
2021/09/14 08:58:16;;;;;;;7.63;4.90;;;;;;;22.64;58.16;92949.34;4999708;28;20037;-78
2021/09/14 09:00:42;;;;;;;10.13;6.20;;;;;;;22.57;58.00;92961.78;5015759;28;20033;-77
2021/09/14 09:03:08;;;;;;;9.27;5.80;;;;;;;22.74;57.46;92961.38;5033536;28;20403;-78
2021/09/14 09:05:38;;;;;;;7.13;4.80;;;;;;;23.01;57.43;92974.88;5031145;28;20042;-77
2021/09/14 09:08:16;;;;;;;8.73;4.80;;;;;;;22.78;57.17;92961.44;4996736;28;20041;-78
2021/09/14 09:10:42;;;;;;;7.22;4.93;;;;;;;22.51;57.90;92973.84;5011015;28;20073;-79
2021/09/14 09:13:07;;;;;;;8.48;5.13;;;;;;;21.64;59.46;92979.06;5015673;28;20180;-79
2021/09/14 09:15:36;;;;;;;7.32;5.03;;;;;;;21.89;58.61;92984.25;5016202;28;20041;-79
2021/09/14 09:18:14;;;;;;;8.15;4.97;;;;;;;22.28;58.62;92976.38;5033204;28;20033;-78
2021/09/14 09:20:41;;;;;;;7.28;4.85;;;;;;;22.99;57.08;92980.59;5046325;28;20123;-79
2021/09/14 09:23:27;;;;;;;9.27;5.43;;;;;;;22.96;56.08;92983.91;5053075;28;20048;-78
2021/09/14 09:26:08;;;;;;;9.52;5.00;;;;;;;23.38;55.16;92985.88;5016051;28;20037;-78
2021/09/14 09:28:34;;;;;;;7.72;4.35;;;;;;;23.54;54.37;92991.13;5037484;28;20498;-80
2021/09/14 09:31:08;;;;;;;11.70;6.32;;;;;;;23.37;55.66;92992.38;5056546;28;20082;-80
2021/09/14 09:33:33;;;;;;;9.65;5.75;;;;;;;23.53;54.39;92988.81;5027116;28;20025;-83
2021/09/14 09:36:09;;;;;;;8.60;4.93;;;;;;;23.01;55.87;92997.03;5038741;28;20036;-81
2021/09/14 09:38:51;;;;;;;9.25;5.47;;;;;;;23.13;55.30;92998.78;4998422;28;20053;-80
2021/09/14 09:41:18;;;;;;;8.17;5.30;;;;;;;23.40;55.68;92998.91;5049373;28;20036;-80
2021/09/14 09:43:44;;;;;;;7.40;4.78;;;;;;;23.28;54.54;92994.47;5038552;28;20049;-80
2021/09/14 09:46:11;;;;;;;7.43;4.18;;;;;;;23.47;54.79;92999.03;5057373;28;20041;-81
2021/09/14 09:48:38;;;;;;;8.45;5.65;;;;;;;23.11;55.04;93005.59;5043246;28;20059;-81
2021/09/14 09:51:04;;;;;;;8.23;5.60;;;;;;;22.79;55.94;93000.34;5060468;28;20387;-80
2021/09/14 09:53:34;;;;;;;9.85;5.03;;;;;;;23.24;55.47;92999.00;5042542;28;20039;-80
2021/09/14 09:56:05;;;;;;;6.88;4.88;;;;;;;23.36;54.84;93000.72;5040957;28;20086;-80
2021/09/14 09:58:31;;;;;;;8.38;5.50;;;;;;;23.27;55.58;93001.72;5025808;28;20034;-80
2021/09/14 10:01:12;;;;;;;7.93;5.28;;;;;;;22.60;55.73;93004.53;5023811;28;20082;-80
2021/09/14 10:03:48;;;;;;;8.55;5.60;;;;;;;23.32;54.01;93006.00;5060747;28;20064;-81
2021/09/14 10:06:15;;;;;;;10.82;5.57;;;;;;;23.39;53.02;93005.34;5059228;28;20553;-80
2021/09/14 10:08:51;;;;;;;8.48;5.15;;;;;;;23.15;51.18;93001.09;5042407;28;20032;-80
2021/09/14 10:11:28;;;;;;;8.77;5.45;;;;;;;23.16;54.04;92997.28;5031595;28;20033;-80
2021/09/14 10:14:04;;;;;;;10.38;5.32;;;;;;;23.22;52.98;92998.56;5060186;28;20595;-80
2021/09/14 10:16:35;;;;;;;8.15;4.85;;;;;;;23.52;52.86;93003.31;5058475;28;20037;-78
2021/09/14 10:19:28;;;;;;;8.45;5.43;;;;;;;23.28;49.46;93005.94;5011226;28;20041;-79
2021/09/14 10:22:08;;;;;;;8.25;4.95;;;;;;;23.48;53.71;92996.00;5057451;28;20509;-79
2021/09/14 10:24:34;;;;;;;7.70;5.35;;;;;;;23.73;51.62;93001.00;5021993;28;20069;-79
2021/09/14 10:27:06;;;;;;;7.35;4.45;;;;;;;23.68;52.60;93001.28;5037676;28;20033;-80
2021/09/14 10:29:32;;;;;;;7.35;5.22;;;;;;;23.13;53.25;92992.66;5029116;28;20043;-79
2021/09/14 10:32:02;;;;;;;7.95;5.38;;;;;;;22.97;55.05;92996.16;5047145;28;20479;-79
2021/09/14 10:34:28;;;;;;;10.30;6.07;;;;;;;23.68;53.88;92990.59;5024660;28;20037;-79
2021/09/14 10:37:04;;;;;;;9.18;5.68;;;;;;;23.56;53.52;92993.47;5041685;28;20028;-78
2021/09/14 10:39:38;;;;;;;9.20;5.10;;;;;;;24.08;51.17;92984.03;5031242;28;20043;-79
2021/09/14 10:42:15;;;;;;;7.65;5.43;;;;;;;23.39;54.09;92986.66;5059867;28;20396;-79
2021/09/14 10:44:42;;;;;;;9.55;5.55;;;;;;;23.66;51.95;92987.50;5049391;28;20476;-78
2021/09/14 10:47:17;;;;;;;7.97;5.30;;;;;;;23.43;51.89;92980.25;5008704;28;20064;-78
2021/09/14 10:49:58;;;;;;;8.93;5.05;;;;;;;23.71;51.77;92984.56;5020823;28;20025;-78
2021/09/14 10:52:37;;;;;;;6.75;4.25;;;;;;;23.85;50.52;92982.16;5032579;28;20505;-78
2021/09/14 10:55:18;;;;;;;8.82;5.57;;;;;;;22.74;53.32;92981.94;5035069;28;20029;-78
2021/09/14 10:57:46;;;;;;;9.45;5.60;;;;;;;23.42;52.42;92973.38;5052316;28;20112;-79
2021/09/14 11:00:18;;;;;;;11.70;5.90;;;;;;;23.62;51.41;92970.63;5058242;28;20033;-79
2021/09/14 11:02:57;;;;;;;7.85;4.90;;;;;;;23.16;53.64;92968.69;5018419;28;20476;-78
2021/09/14 11:05:31;;;;;;;6.55;4.00;;;;;;;23.11;54.03;92968.22;5057984;28;20037;-78
2021/09/14 11:08:01;;;;;;;9.50;5.38;;;;;;;23.13;54.37;92965.97;5057680;28;20032;-78
2021/09/14 11:10:39;;;;;;;8.05;4.68;;;;;;;23.57;54.24;92960.25;5039008;28;20039;-78
2021/09/14 11:13:06;;;;;;;8.98;5.05;;;;;;;23.46;53.79;92965.41;5038447;28;20045;-77
2021/09/14 11:15:32;;;;;;;9.52;5.55;;;;;;;23.71;53.38;92965.84;5039139;28;20051;-81
2021/09/14 11:17:58;;;;;;;7.85;4.85;;;;;;;23.64;53.89;92957.69;5053118;28;20120;-78
2021/09/14 11:20:29;;;;;;;11.30;5.00;;;;;;;23.60;55.30;92964.91;5033244;28;20139;-78
2021/09/14 11:22:55;;;;;;;8.30;5.78;;;;;;;23.86;52.92;92959.63;5035849;28;20029;-80
2021/09/14 11:25:23;;;;;;;9.23;5.25;;;;;;;24.14;51.38;92963.88;5058312;28;20108;-79
2021/09/14 11:28:10;;;;;;;8.13;5.15;;;;;;;23.57;54.08;92960.25;5058564;28;20064;-79
2021/09/14 11:30:36;;;;;;;9.95;5.85;;;;;;;23.26;54.09;92965.47;5039829;28;20032;-79
2021/09/14 11:33:03;;;;;;;10.02;5.47;;;;;;;23.87;52.10;92950.50;5057704;28;20088;-78
2021/09/14 11:35:33;;;;;;;8.60;5.65;;;;;;;23.74;53.12;92957.13;5058187;28;20041;-79
2021/09/14 11:38:04;;;;;;;12.48;6.05;;;;;;;23.99;51.89;92956.78;5040564;28;20033;-79
2021/09/14 11:40:32;;;;;;;10.50;6.00;;;;;;;24.18;51.96;92954.00;5037465;28;20038;-79
2021/09/14 11:43:01;;;;;;;8.45;5.30;;;;;;;24.00;53.12;92956.44;5056673;28;20021;-79
2021/09/14 11:45:29;;;;;;;9.75;5.80;;;;;;;24.24;51.35;92960.59;5004275;28;20035;-79
2021/09/14 11:47:56;;;;;;;8.80;5.32;;;;;;;23.85;53.51;92960.75;5038930;28;20037;-79
2021/09/14 11:50:29;;;;;;;8.40;5.38;;;;;;;24.11;53.19;92959.25;5037969;28;20068;-79
2021/09/14 11:53:10;;;;;;;10.13;6.13;;;;;;;23.92;52.50;92960.09;5058247;28;20085;-79
2021/09/14 11:55:56;;;;;;;9.38;5.22;;;;;;;23.60;54.19;92964.91;5040533;28;20037;-79
2021/09/14 11:58:35;;;;;;;9.40;5.70;;;;;;;22.74;56.25;92958.72;5058033;28;20056;-78
2021/09/14 12:01:08;;;;;;;7.15;4.97;;;;;;;22.80;57.31;92959.19;5059007;28;20041;-79
2021/09/14 12:03:44;;;;;;;9.60;5.45;;;;;;;22.87;56.88;92959.31;5056236;28;20094;-78
2021/09/14 12:06:12;;;;;;;8.40;5.53;;;;;;;22.96;56.51;92957.22;5020893;28;20041;-79
2021/09/14 12:08:42;;;;;;;8.32;5.57;;;;;;;22.92;57.76;92948.41;5031883;28;20025;-79
2021/09/14 12:11:09;;;;;;;7.82;5.07;;;;;;;23.26;55.43;92948.66;5057743;28;20043;-79
2021/09/14 12:13:43;;;;;;;8.50;5.57;;;;;;;23.74;54.03;92946.44;5058008;28;20025;-79
2021/09/14 12:16:16;;;;;;;8.13;5.03;;;;;;;23.85;54.34;92944.72;5023646;28;20032;-79
2021/09/14 12:18:43;;;;;;;8.13;5.78;;;;;;;23.48;53.13;92953.25;5040171;28;20045;-79
2021/09/14 12:21:10;;;;;;;10.77;5.80;;;;;;;23.04;54.91;92942.16;5014271;28;20176;-79
2021/09/14 12:23:36;;;;;;;7.95;5.50;;;;;;;23.55;54.63;92949.16;5032754;28;20052;-79
2021/09/14 12:26:01;;;;;;;8.02;5.40;;;;;;;23.64;53.57;92952.34;5037880;28;20037;-79
2021/09/14 12:28:27;;;;;;;24.40;6.45;;;;;;;23.44;54.50;92949.75;5003586;28;20081;-79
2021/09/14 12:30:53;;;;;;;8.55;5.95;;;;;;;23.20;54.30;92952.75;5020002;28;20044;-79
2021/09/14 12:33:18;;;;;;;10.07;5.90;;;;;;;23.46;54.74;92952.06;5037774;28;20403;-79
2021/09/14 12:35:45;;;;;;;8.82;5.53;;;;;;;23.12;54.54;92948.38;5020062;28;20049;-79
2021/09/14 12:38:10;;;;;;;8.60;5.43;;;;;;;23.02;55.35;92939.84;5020026;28;20037;-79
2021/09/14 12:40:37;;;;;;;8.93;5.65;;;;;;;22.86;55.66;92939.88;5019821;28;20163;-79
2021/09/14 12:43:03;;;;;;;10.27;5.85;;;;;;;22.74;56.74;92934.69;5037700;28;20029;-79
2021/09/14 12:45:29;;;;;;;9.48;5.47;;;;;;;22.51;57.21;92942.59;5031721;28;20399;-78
2021/09/14 12:47:55;;;;;;;10.70;5.60;;;;;;;22.83;56.54;92937.13;5007165;28;20124;-78
2021/09/14 12:50:21;;;;;;;7.90;5.70;;;;;;;23.06;55.04;92940.66;5037081;28;20112;-79
2021/09/14 12:52:46;;;;;;;8.80;5.45;;;;;;;23.25;54.28;92931.09;5037407;28;20049;-79
2021/09/14 12:55:12;;;;;;;8.38;5.93;;;;;;;23.13;54.16;92936.59;5036610;28;20123;-79
2021/09/14 12:57:38;;;;;;;8.27;5.25;;;;;;;23.32;55.56;92936.56;5037570;28;20044;-79
2021/09/14 13:00:04;;;;;;;7.60;5.47;;;;;;;23.23;54.85;92939.44;5035436;28;20091;-79
2021/09/14 13:02:30;;;;;;;8.57;5.65;;;;;;;23.38;55.12;92935.13;5035849;28;20060;-79
2021/09/14 13:04:56;;;;;;;9.63;5.43;;;;;;;23.27;55.27;92934.19;5019038;28;20460;-79
2021/09/14 13:07:21;;;;;;;9.68;5.90;;;;;;;23.16;55.23;92933.97;5036664;28;20487;-78
2021/09/14 13:09:47;;;;;;;9.75;5.88;;;;;;;23.15;55.24;92937.78;5018758;28;20399;-79
2021/09/14 13:12:19;;;;;;;9.73;6.03;;;;;;;23.09;55.33;92936.53;5036933;28;20033;-79
2021/09/14 13:17:31;;;;;;;11.63;6.70;;;;;;;23.17;54.25;92932.06;5018976;28;20041;-78
2021/09/14 13:19:57;;;;;;;8.50;5.60;;;;;;;23.25;55.06;92933.75;5044191;28;20514;-79
2021/09/14 13:22:23;;;;;;;8.88;5.47;;;;;;;23.18;55.48;92928.28;5021738;28;20131;-78
2021/09/14 13:24:48;;;;;;;8.07;5.28;;;;;;;23.20;55.50;92924.13;5037972;28;20041;-79
2021/09/14 13:27:14;;;;;;;8.85;5.50;;;;;;;23.21;55.22;92930.25;5056471;28;20041;-79
2021/09/14 13:29:40;;;;;;;9.38;5.75;;;;;;;23.26;54.41;92927.31;5036325;28;20035;-80
2021/09/14 13:32:06;;;;;;;8.75;5.70;;;;;;;23.18;55.36;92930.97;5038513;28;20041;-79
2021/09/14 13:34:31;;;;;;;8.45;5.07;;;;;;;23.18;55.93;92929.06;5058882;28;20059;-79
2021/09/14 13:36:57;;;;;;;9.55;6.47;;;;;;;23.17;55.16;92924.06;5038100;28;20143;-80
2021/09/14 13:39:22;;;;;;;8.40;5.88;;;;;;;23.19;55.19;92924.47;5052929;28;20032;-80
2021/09/14 13:41:51;;;;;;;8.73;5.82;;;;;;;23.04;56.25;92918.91;5037119;28;20049;-82
2021/09/14 13:47:00;;;;;;;10.50;5.63;;;;;;;22.89;56.69;92917.03;5020351;28;20033;-82
2021/09/14 13:49:26;;;;;;;9.32;6.15;;;;;;;23.01;56.16;92922.28;5045179;28;20046;-82
2021/09/14 13:51:52;;;;;;;9.23;5.78;;;;;;;22.58;57.58;92918.72;5017650;28;20029;-82
2021/09/14 13:54:18;;;;;;;10.43;6.25;;;;;;;22.59;57.72;92912.28;5049881;28;20037;-81
2021/09/14 13:56:44;;;;;;;8.82;5.30;;;;;;;22.60;57.31;92921.06;5055604;28;20069;-81
2021/09/14 13:59:09;;;;;;;7.80;5.07;;;;;;;22.64;57.18;92914.66;5042418;28;20033;-81
2021/09/14 14:01:35;;;;;;;8.77;5.70;;;;;;;22.65;58.21;92918.09;5054788;28;20049;-81
2021/09/14 14:04:01;;;;;;;12.60;5.43;;;;;;;22.28;56.51;92915.06;5021183;28;20356;-81
2021/09/14 14:06:27;;;;;;;9.38;5.45;;;;;;;22.55;55.64;92914.09;5054340;28;20048;-80
2021/09/14 14:08:53;;;;;;;8.90;5.78;;;;;;;22.41;55.56;92917.25;5037843;28;20141;-80
2021/09/14 14:11:20;;;;;;;9.10;6.00;;;;;;;22.32;56.16;92918.59;5055360;28;20122;-81
2021/09/14 14:13:46;;;;;;;8.68;5.47;;;;;;;22.45;55.75;92914.66;5036925;28;20041;-80
2021/09/14 14:16:12;;;;;;;13.13;5.78;;;;;;;22.53;53.33;92913.69;5055872;28;20037;-81
2021/09/14 14:18:38;;;;;;;11.45;5.88;;;;;;;22.54;55.24;92920.56;5055903;28;20033;-80
2021/09/14 14:21:04;;;;;;;10.63;6.00;;;;;;;22.54;56.11;92914.44;5011738;28;20064;-81
2021/09/14 14:23:30;;;;;;;8.77;5.50;;;;;;;22.48;54.99;92911.28;5016180;28;20053;-81
2021/09/14 14:25:56;;;;;;;8.52;5.68;;;;;;;22.37;55.61;92911.06;5031736;28;20038;-81
2021/09/14 14:28:22;;;;;;;11.50;5.68;;;;;;;22.32;56.27;92910.59;5015231;28;20038;-81
2021/09/14 14:30:48;;;;;;;7.90;5.38;;;;;;;22.37;56.28;92911.06;5016130;28;20526;-79